Time;durP1;ratioP1;P1;durP2;ratioP2;P2;SDS_P1;SDS_P2;PMS_P1;PMS_P2;Temp;Humidity;BMP_temperature;BMP_pressure;BME280_temperature;BME280_humidity;BME280_pressure;Samples;Min_cycle;Max_cycle;Signal;HPM_P1;HPM_P2
2022/02/17 00:01:01;;;;;;;;;;;;;;;-144.99;73.36;52578.53;5057003;28;20075;-71
2022/02/17 00:03:28;;;;;;;;;;;;;;;-144.99;72.99;52552.03;5058553;28;20463;-77
2022/02/17 00:05:56;;;;;;;;;;;;;;;-144.99;73.74;52586.69;5045915;28;20448;-76
2022/02/17 00:08:23;;;;;;;;;;;;;;;-144.99;72.65;52529.63;5049777;28;19993;-77
2022/02/17 00:10:50;;;;;;;;;;;;;;;-144.99;72.16;52586.69;5050652;28;20252;-76
2022/02/17 00:13:16;;;;;;;;;;;;;;;-144.99;72.02;52590.78;5050908;28;19977;-78
2022/02/17 00:15:43;;;;;;;;;;;;;;;-144.99;72.22;52619.31;5050616;28;19984;-76
2022/02/17 00:18:13;;;;;;;;;;;;;;;-144.99;72.42;52592.81;5050708;28;20473;-74
2022/02/17 00:20:40;;;;;;;;;;;;;;;-144.99;70.88;52590.78;5062372;28;20120;-75
2022/02/17 00:23:07;;;;;;;;;;;;;;;-144.99;70.47;52562.25;5064284;28;19982;-77
2022/02/17 00:25:35;;;;;;;;;;;;;;;-144.99;70.61;52603.00;5050394;28;20088;-77
2022/02/17 00:28:01;;;;;;;;;;;;;;;-144.99;69.93;52603.00;5052721;28;20094;-78
2022/02/17 00:30:31;;;;;;;;;;;;;;;-144.99;70.26;52554.09;5051566;28;20483;-77
2022/02/17 00:32:58;;;;;;;;;;;;;;;-144.99;69.30;52550.00;5051022;28;19985;-78
2022/02/17 00:35:24;;;;;;;;;;;;;;;-144.99;68.71;52582.63;5048000;28;20064;-76
2022/02/17 00:37:51;;;;;;;;;;;;;;;-144.99;68.46;52566.31;5050836;28;19981;-76
2022/02/17 00:40:17;;;;;;;;;;;;;;;-144.99;68.27;52594.84;5043054;28;19977;-76
2022/02/17 00:42:45;;;;;;;;;;;;;;;-144.99;67.80;52578.53;5058014;28;20170;-76
2022/02/17 00:45:11;;;;;;;;;;;;;;;-144.99;66.36;52580.59;5053376;28;19980;-79
2022/02/17 00:47:38;;;;;;;;;;;;;;;-144.99;65.33;52586.69;5050940;28;20028;-77
2022/02/17 00:50:04;;;;;;;;;;;;;;;-144.99;64.21;52582.63;5048712;28;19981;-76
2022/02/17 00:52:31;;;;;;;;;;;;;;;-144.99;63.58;52580.59;5049879;28;20027;-78
2022/02/17 00:54:57;;;;;;;;;;;;;;;-144.99;63.74;52562.25;5049587;28;19977;-78
2022/02/17 00:57:24;;;;;;;;;;;;;;;-144.99;63.55;52550.00;5050089;28;20230;-74
2022/02/17 00:59:52;;;;;;;;;;;;;;;-144.99;62.47;52586.69;5048968;28;20103;-79
2022/02/17 01:02:18;;;;;;;;;;;;;;;-144.99;61.11;52539.81;5047644;28;20372;-75
2022/02/17 01:04:45;;;;;;;;;;;;;;;-144.99;61.00;52617.28;5053169;28;20402;-77
2022/02/17 01:07:11;;;;;;;;;;;;;;;-144.99;60.24;52570.38;5061403;28;19977;-77
2022/02/17 01:09:38;;;;;;;;;;;;;;;-144.99;60.74;52594.84;5054672;28;20092;-77
2022/02/17 01:12:05;;;;;;;;;;;;;;;-144.99;60.75;52582.63;5069870;28;19993;-78
2022/02/17 01:14:32;;;;;;;;;;;;;;;-144.99;59.98;52603.00;5056082;28;20008;-74
2022/02/17 01:16:59;;;;;;;;;;;;;;;-144.99;60.49;52574.47;5060433;28;20039;-77
2022/02/17 01:19:26;;;;;;;;;;;;;;;-144.99;60.44;52566.31;5043447;28;19997;-79
2022/02/17 01:21:53;;;;;;;;;;;;;;;-144.99;60.73;52619.31;5054567;28;19973;-76
2022/02/17 01:24:19;;;;;;;;;;;;;;;-144.99;60.61;52609.13;5049227;28;20036;-76
2022/02/17 01:26:46;;;;;;;;;;;;;;;-144.99;60.05;52590.78;5048741;28;20020;-75
2022/02/17 01:29:13;;;;;;;;;;;;;;;-144.99;60.51;52590.78;5051250;28;19993;-77
2022/02/17 01:31:39;;;;;;;;;;;;;;;-144.99;60.56;52600.97;5058201;28;20109;-78
2022/02/17 01:34:08;;;;;;;;;;;;;;;-144.99;59.70;52586.69;5059031;28;19973;-77
2022/02/17 01:36:35;;;;;;;;;;;;;;;-144.99;59.15;52586.69;5048226;28;19999;-77
2022/02/17 01:39:02;;;;;;;;;;;;;;;-144.99;59.79;52598.94;5050754;28;19997;-78
2022/02/17 01:41:28;;;;;;;;;;;;;;;-144.99;59.83;52562.25;5049671;28;20035;-77
2022/02/17 01:43:55;;;;;;;;;;;;;;;-144.99;59.30;52574.47;5049205;28;20459;-77
2022/02/17 01:46:32;;;;;;;;;;;;;;;-144.99;59.28;52594.84;5048516;28;20024;-77
2022/02/17 01:48:59;;;;;;;;;;;;;;;-144.99;59.58;52584.66;5049416;28;20194;-76
2022/02/17 01:51:27;;;;;;;;;;;;;;;-144.99;58.63;52572.44;5050697;28;19997;-78
2022/02/17 01:53:53;;;;;;;;;;;;;;;-144.99;58.43;52598.94;5034686;28;20068;-74
2022/02/17 01:56:20;;;;;;;;;;;;;;;-144.99;58.67;52594.84;5048269;28;20071;-75
2022/02/17 01:58:46;;;;;;;;;;;;;;;-144.99;58.05;52598.94;5048119;28;20040;-74
2022/02/17 02:01:13;;;;;;;;;;;;;;;-144.99;58.30;52590.78;5047447;28;19973;-75
2022/02/17 02:03:39;;;;;;;;;;;;;;;-144.99;58.06;52590.78;5048118;28;19982;-74
2022/02/17 02:06:06;;;;;;;;;;;;;;;-144.99;57.80;52572.44;5045875;28;20562;-73
2022/02/17 02:08:34;;;;;;;;;;;;;;;-144.99;57.04;52554.09;5047707;28;19989;-74
2022/02/17 02:11:00;;;;;;;;;;;;;;;-144.99;57.12;52629.50;5048943;28;20475;-74
2022/02/17 02:13:27;;;;;;;;;;;;;;;-144.99;57.17;52566.31;5056931;28;19987;-75
2022/02/17 02:15:54;;;;;;;;;;;;;;;-144.99;57.05;52590.78;5046636;28;19974;-73
2022/02/17 02:18:22;;;;;;;;;;;;;;;-144.99;57.42;52586.69;5047643;28;20178;-74
2022/02/17 02:20:50;;;;;;;;;;;;;;;-144.99;57.65;52615.25;5045577;28;20036;-74
2022/02/17 02:23:17;;;;;;;;;;;;;;;-144.99;57.62;52594.84;5050529;28;20024;-74
2022/02/17 02:25:45;;;;;;;;;;;;;;;-144.99;58.71;52623.38;5045239;28;20051;-72
2022/02/17 02:28:12;;;;;;;;;;;;;;;-144.99;59.18;52613.19;5046631;28;19990;-73
2022/02/17 02:30:38;;;;;;;;;;;;;;;-144.99;59.33;52590.78;5049299;28;19981;-74
2022/02/17 02:33:05;;;;;;;;;;;;;;;-144.99;58.89;52590.78;5054990;28;19973;-72
2022/02/17 02:35:31;;;;;;;;;;;;;;;-144.99;58.72;52578.53;5045986;28;20088;-75
2022/02/17 02:37:59;;;;;;;;;;;;;;;-144.99;58.95;52619.31;5041099;28;20359;-73
2022/02/17 02:40:26;;;;;;;;;;;;;;;-144.99;59.42;52623.38;5047635;28;20100;-75
2022/02/17 02:42:52;;;;;;;;;;;;;;;-144.99;59.89;52594.84;5046980;28;20068;-72
2022/02/17 02:45:19;;;;;;;;;;;;;;;-144.99;59.33;52615.25;5045745;28;19984;-72
2022/02/17 02:47:45;;;;;;;;;;;;;;;-144.99;60.41;52613.19;5047310;28;20084;-74
2022/02/17 02:50:11;;;;;;;;;;;;;;;-144.99;60.82;52629.50;5044509;28;19977;-74
2022/02/17 02:52:38;;;;;;;;;;;;;;;-144.99;61.10;52625.44;5057751;28;20024;-76
2022/02/17 02:55:06;;;;;;;;;;;;;;;-144.99;60.88;52611.16;5045548;28;20076;-74
2022/02/17 02:57:33;;;;;;;;;;;;;;;-144.99;60.95;52598.94;5047505;28;19987;-74
2022/02/17 02:59:59;;;;;;;;;;;;;;;-144.99;61.43;52596.88;5045967;28;19974;-74
2022/02/17 03:02:25;;;;;;;;;;;;;;;-144.99;61.36;52582.63;5047330;28;19984;-73
2022/02/17 03:04:52;;;;;;;;;;;;;;;-144.99;61.37;52611.16;5044987;28;20526;-75
2022/02/17 03:07:20;;;;;;;;;;;;;;;-144.99;61.24;52631.53;5049836;28;20407;-78
2022/02/17 03:09:46;;;;;;;;;;;;;;;-144.99;61.98;52605.03;5040662;28;20483;-78
2022/02/17 03:12:14;;;;;;;;;;;;;;;-144.99;61.59;52651.94;5060231;28;20036;-77
2022/02/17 03:14:42;;;;;;;;;;;;;;;-144.99;61.82;52611.16;5048411;28;20075;-74
2022/02/17 03:17:09;;;;;;;;;;;;;;;-144.99;61.62;52651.94;5048394;28;20138;-76
2022/02/17 03:19:35;;;;;;;;;;;;;;;-144.99;60.94;52598.94;5047035;28;20158;-73
2022/02/17 03:22:02;;;;;;;;;;;;;;;-144.99;60.41;52651.94;5052942;28;20016;-78
2022/02/17 03:24:28;;;;;;;;;;;;;;;-144.99;60.05;52596.88;5046860;28;19981;-77
2022/02/17 03:26:55;;;;;;;;;;;;;;;-144.99;60.93;52631.53;5045820;28;19977;-77
2022/02/17 03:29:22;;;;;;;;;;;;;;;-144.99;61.16;52629.50;5047883;28;19970;-76
2022/02/17 03:31:49;;;;;;;;;;;;;;;-144.99;61.71;52619.31;5056136;28;19996;-76
2022/02/17 03:34:15;;;;;;;;;;;;;;;-144.99;63.13;52647.84;5045782;28;20035;-78
2022/02/17 03:36:42;;;;;;;;;;;;;;;-144.99;62.51;52619.31;5045267;28;19985;-77
2022/02/17 03:39:08;;;;;;;;;;;;;;;-144.99;62.97;52625.44;5046602;28;20047;-78
2022/02/17 03:41:35;;;;;;;;;;;;;;;-144.99;61.92;52607.09;5047720;28;20242;-78
2022/02/17 03:44:01;;;;;;;;;;;;;;;-144.99;62.08;52582.63;5049732;28;20024;-75
2022/02/17 03:46:29;;;;;;;;;;;;;;;-144.99;61.93;52594.84;5049620;28;20075;-74
2022/02/17 03:48:55;;;;;;;;;;;;;;;-144.99;61.49;52635.63;5052031;28;19998;-72
2022/02/17 03:51:22;;;;;;;;;;;;;;;-144.99;61.63;52594.84;5056034;28;19997;-74
2022/02/17 03:53:48;;;;;;;;;;;;;;;-144.99;60.82;52607.09;5049923;28;20458;-74
2022/02/17 03:56:14;;;;;;;;;;;;;;;-144.99;60.57;52603.00;5050983;28;20075;-73
2022/02/17 04:01:25;;;;;;;;;;;;;;;-144.99;60.24;52631.53;5048312;28;20039;-73
2022/02/17 04:03:53;;;;;;;;;;;;;;;-144.99;60.57;52635.63;5055969;28;19981;-75
2022/02/17 04:06:19;;;;;;;;;;;;;;;-144.99;60.11;52588.75;5055157;28;20024;-73
2022/02/17 04:08:46;;;;;;;;;;;;;;;-144.99;60.21;52623.38;5055207;28;20088;-76
2022/02/17 04:11:12;;;;;;;;;;;;;;;-144.99;60.14;52615.25;5064469;28;20011;-77
2022/02/17 04:13:39;;;;;;;;;;;;;;;-144.99;59.82;52615.25;5057497;28;20050;-76
2022/02/17 04:16:05;;;;;;;;;;;;;;;-144.99;59.89;52619.31;5069451;28;20064;-76
2022/02/17 04:18:32;;;;;;;;;;;;;;;-144.99;59.74;52631.53;5065712;28;20036;-77
2022/02/17 04:21:00;;;;;;;;;;;;;;;-144.99;60.07;52627.47;5057832;28;19989;-78
2022/02/17 04:23:26;;;;;;;;;;;;;;;-144.99;60.37;52645.81;5065414;28;20056;-77
2022/02/17 04:25:53;;;;;;;;;;;;;;;-144.99;61.15;52594.84;5061337;28;19981;-79
2022/02/17 04:28:19;;;;;;;;;;;;;;;-144.99;61.63;52635.63;5054713;28;20088;-77
2022/02/17 04:30:46;;;;;;;;;;;;;;;-144.99;61.81;52631.53;5049618;28;20080;-78
2022/02/17 04:33:12;;;;;;;;;;;;;;;-144.99;62.74;52615.25;5048908;28;20366;-80
2022/02/17 04:35:38;;;;;;;;;;;;;;;-144.99;62.06;52643.78;5056458;28;19987;-79
2022/02/17 04:38:06;;;;;;;;;;;;;;;-144.99;62.38;52635.63;5056803;28;19993;-77
2022/02/17 04:43:13;;;;;;;;;;;;;;;-144.99;63.40;52688.63;5005008;28;20392;-78
2022/02/17 04:45:39;;;;;;;;;;;;;;;-144.99;62.88;52623.38;5050945;28;20060;-79
2022/02/17 04:48:07;;;;;;;;;;;;;;;-144.99;63.69;52639.69;5050640;28;20083;-78
2022/02/17 04:50:33;;;;;;;;;;;;;;;-144.99;65.36;52647.84;5049456;28;20446;-79
2022/02/17 04:53:00;;;;;;;;;;;;;;;-144.99;67.08;52619.31;5053964;28;20051;-78
2022/02/17 04:55:27;;;;;;;;;;;;;;;-144.99;68.68;52615.25;5056577;28;20016;-79
2022/02/17 04:57:54;;;;;;;;;;;;;;;-144.99;70.11;52668.22;5051423;28;20008;-75
2022/02/17 05:00:20;;;;;;;;;;;;;;;-144.99;71.99;52623.38;5055136;28;19984;-74
2022/02/17 05:02:47;;;;;;;;;;;;;;;-144.99;75.58;52631.53;5051654;28;20399;-75
2022/02/17 05:05:13;;;;;;;;;;;;;;;-144.99;74.89;52598.94;5047120;28;19974;-75
2022/02/17 05:07:40;;;;;;;;;;;;;;;-144.99;76.41;52590.78;5049040;28;20444;-76
2022/02/17 05:10:07;;;;;;;;;;;;;;;-144.99;100.00;52627.47;5049348;28;19977;-75
2022/02/17 05:12:35;;;;;;;;;;;;;;;-144.99;100.00;52684.53;5048221;28;20405;-76
2022/02/17 05:15:01;;;;;;;;;;;;;;;-144.99;87.28;52590.78;5047490;28;20549;-73
2022/02/17 05:17:28;;;;;;;;;;;;;;;-144.99;80.76;52651.94;5049904;28;20068;-77
2022/02/17 05:19:54;;;;;;;;;;;;;;;-144.99;81.80;52627.47;5056773;28;20592;-77
2022/02/17 05:22:20;;;;;;;;;;;;;;;-144.99;100.00;52635.63;5049719;28;20121;-76
2022/02/17 05:24:47;;;;;;;;;;;;;;;-144.99;81.48;52607.09;5048120;28;19977;-75
2022/02/17 05:27:13;;;;;;;;;;;;;;;-144.99;84.00;52631.53;5049758;28;20012;-74
2022/02/17 05:29:41;;;;;;;;;;;;;;;-144.99;84.35;52637.66;5054567;28;19997;-75
2022/02/17 05:32:08;;;;;;;;;;;;;;;-144.99;94.50;52611.16;5048479;28;20088;-73
2022/02/17 05:34:35;;;;;;;;;;;;;;;-144.99;95.63;52635.63;5047260;28;20016;-73
2022/02/17 05:37:02;;;;;;;;;;;;;;;-144.99;100.00;52629.50;5044056;28;20429;-73
2022/02/17 05:39:28;;;;;;;;;;;;;;;-144.99;100.00;52625.44;5056724;28;20482;-74
2022/02/17 05:41:55;;;;;;;;;;;;;;;-144.99;100.00;52586.69;5055768;28;20013;-74
2022/02/17 05:44:21;;;;;;;;;;;;;;;-144.99;96.07;52574.47;5047174;28;19985;-76
2022/02/17 05:46:49;;;;;;;;;;;;;;;-144.99;98.04;52615.25;5048269;28;19981;-72
2022/02/17 05:49:15;;;;;;;;;;;;;;;-144.99;100.00;52631.53;5048480;28;20083;-72
2022/02/17 05:51:42;;;;;;;;;;;;;;;-144.99;99.59;52651.94;5046606;28;20014;-75
2022/02/17 05:54:09;;;;;;;;;;;;;;;-144.99;98.18;52623.38;5047163;28;20131;-75
2022/02/17 05:56:35;;;;;;;;;;;;;;;-144.99;97.85;52645.81;5048492;28;19977;-73
2022/02/17 05:59:02;;;;;;;;;;;;;;;-144.99;97.78;52653.97;5047799;28;20464;-73
2022/02/17 06:01:30;;;;;;;;;;;;;;;-144.99;99.93;52576.50;5037849;28;22385;-71
2022/02/17 06:03:58;;;;;;;;;;;;;;;-144.99;96.61;52576.50;5051852;28;20400;-75
2022/02/17 06:06:24;;;;;;;;;;;;;;;-144.99;96.19;52625.44;5044535;28;19978;-72
2022/02/17 06:08:51;;;;;;;;;;;;;;;-144.99;98.42;52603.00;5048467;28;20048;-75
2022/02/17 06:11:17;;;;;;;;;;;;;;;-144.99;100.00;52631.53;5048059;28;19974;-77
2022/02/17 06:13:43;;;;;;;;;;;;;;;-144.99;98.94;52580.59;5048222;28;19993;-75
2022/02/17 06:16:10;;;;;;;;;;;;;;;-144.99;95.81;52594.84;4349227;28;10000737;-73
2022/02/17 06:18:36;;;;;;;;;;;;;;;-144.99;96.94;52629.50;5048832;28;20032;-77
2022/02/17 06:21:04;;;;;;;;;;;;;;;-144.99;100.00;52590.78;5047055;28;19984;-77
2022/02/17 06:23:31;;;;;;;;;;;;;;;-144.99;99.14;52603.00;5054715;28;20091;-75
2022/02/17 06:25:57;;;;;;;;;;;;;;;-144.99;98.48;52653.97;5051089;28;20000;-74
2022/02/17 06:28:24;;;;;;;;;;;;;;;-144.99;100.00;52647.84;5043992;28;19997;-76
2022/02/17 06:30:51;;;;;;;;;;;;;;;-144.99;100.00;52619.31;5045276;28;19985;-76
2022/02/17 06:33:17;;;;;;;;;;;;;;;-144.99;99.48;52623.38;5042715;28;20001;-74
2022/02/17 06:35:44;;;;;;;;;;;;;;;-144.99;100.00;52578.53;5042944;28;19992;-75
2022/02/17 06:38:11;;;;;;;;;;;;;;;-144.99;100.00;52619.31;5041114;28;19997;-75
2022/02/17 06:40:38;;;;;;;;;;;;;;;-144.99;99.79;52578.53;5043052;28;19985;-76
2022/02/17 06:43:05;;;;;;;;;;;;;;;-144.99;98.32;52625.44;5045918;28;20012;-72
2022/02/17 06:45:32;;;;;;;;;;;;;;;-144.99;98.05;52627.47;5052563;28;20067;-74
2022/02/17 06:47:58;;;;;;;;;;;;;;;-144.99;99.24;52651.94;5037157;28;19997;-76
2022/02/17 06:50:25;;;;;;;;;;;;;;;-144.99;99.00;52627.47;5041717;28;20443;-74
2022/02/17 06:52:52;;;;;;;;;;;;;;;-144.99;100.00;52623.38;5045838;28;20075;-73
2022/02/17 06:55:19;;;;;;;;;;;;;;;-144.99;100.00;52578.53;5042721;28;20034;-72
2022/02/17 06:57:46;;;;;;;;;;;;;;;-144.99;99.74;52611.16;5044182;28;19987;-73
2022/02/17 07:00:13;;;;;;;;;;;;;;;-144.99;100.00;52627.47;5042987;28;19985;-75
2022/02/17 07:02:39;;;;;;;;;;;;;;;-144.99;99.91;52603.00;5047629;28;20072;-75
2022/02/17 07:05:06;;;;;;;;;;;;;;;-144.99;100.00;52611.16;5042058;28;19992;-73
2022/02/17 07:07:35;;;;;;;;;;;;;;;-144.99;100.00;52574.47;5053329;28;19981;-76
2022/02/17 07:10:01;;;;;;;;;;;;;;;-144.99;100.00;52627.47;5031955;28;19974;-72
2022/02/17 07:12:29;;;;;;;;;;;;;;;-144.99;100.00;52594.84;5043960;28;19985;-74
2022/02/17 07:14:57;;;;;;;;;;;;;;;-144.99;100.00;52605.03;5043116;28;19989;-73
2022/02/17 07:17:23;;;;;;;;;;;;;;;-144.99;100.00;52627.47;5046075;28;19981;-77
2022/02/17 07:19:50;;;;;;;;;;;;;;;-144.99;100.00;52590.78;5046134;28;20407;-72
2022/02/17 07:22:16;;;;;;;;;;;;;;;-144.99;100.00;52611.16;5047962;28;20211;-77
2022/02/17 07:24:43;;;;;;;;;;;;;;;-144.99;100.00;52590.78;5047194;28;20084;-73
2022/02/17 07:27:09;;;;;;;;;;;;;;;-144.99;100.00;52611.16;5047587;28;19983;-76
2022/02/17 07:29:37;;;;;;;;;;;;;;;-144.99;100.00;52598.94;5055166;28;19993;-73
2022/02/17 07:32:05;;;;;;;;;;;;;;;-144.99;100.00;52635.63;5051381;28;19988;-75
2022/02/17 07:34:31;;;;;;;;;;;;;;;-144.99;100.00;52627.47;5046846;28;20193;-75
2022/02/17 07:36:57;;;;;;;;;;;;;;;-144.99;100.00;52598.94;5045249;28;20364;-74
2022/02/17 07:39:24;;;;;;;;;;;;;;;-144.99;99.94;52586.69;5047317;28;20153;-73
2022/02/17 07:41:50;;;;;;;;;;;;;;;-144.99;99.54;52649.88;5047324;28;19977;-72
2022/02/17 07:44:17;;;;;;;;;;;;;;;-144.99;100.00;52588.75;5045851;28;20420;-71
2022/02/17 07:46:45;;;;;;;;;;;;;;;-144.99;100.00;52643.78;5054550;28;20587;-77
2022/02/17 07:49:11;;;;;;;;;;;;;;;-144.99;100.00;52627.47;5048398;28;20359;-74
2022/02/17 07:51:39;;;;;;;;;;;;;;;-144.99;100.00;52590.78;5048823;28;19986;-74
2022/02/17 07:54:05;;;;;;;;;;;;;;;-144.99;100.00;52603.00;5046625;28;20007;-76
2022/02/17 07:56:32;;;;;;;;;;;;;;;-144.99;100.00;52641.72;5046530;28;20465;-72
2022/02/17 07:58:58;;;;;;;;;;;;;;;-144.99;100.00;52584.66;5047315;28;19993;-74
2022/02/17 08:01:25;;;;;;;;;;;;;;;-144.99;99.45;52603.00;5046348;28;20003;-75
2022/02/17 08:03:53;;;;;;;;;;;;;;;-144.99;100.00;52603.00;5045940;28;20073;-72
2022/02/17 08:06:19;;;;;;;;;;;;;;;-144.99;98.61;52615.25;5045005;28;20104;-73
2022/02/17 08:08:48;;;;;;;;;;;;;;;-144.99;99.01;52603.00;5052808;28;20000;-73
2022/02/17 08:11:15;;;;;;;;;;;;;;;-144.99;98.93;52629.50;5041680;28;19977;-71
2022/02/17 08:13:41;;;;;;;;;;;;;;;-144.99;98.55;52582.63;5045137;28;20092;-72
2022/02/17 08:16:08;;;;;;;;;;;;;;;-144.99;99.64;52631.53;5040236;28;19977;-72
2022/02/17 08:18:34;;;;;;;;;;;;;;;-144.99;100.00;52623.38;5046396;28;20036;-74
2022/02/17 08:21:02;;;;;;;;;;;;;;;-144.99;99.74;52621.34;5044753;28;19985;-75
2022/02/17 08:23:31;;;;;;;;;;;;;;;-144.99;99.95;52627.47;5049346;28;19984;-74
2022/02/17 08:26:00;;;;;;;;;;;;;;;-144.99;100.00;52590.78;5046981;28;20081;-75
2022/02/17 08:28:26;;;;;;;;;;;;;;;-144.99;99.94;52631.53;5046009;28;20450;-74
2022/02/17 08:30:52;;;;;;;;;;;;;;;-144.99;98.50;52558.16;5046625;28;20039;-75
2022/02/17 08:33:19;;;;;;;;;;;;;;;-144.99;98.97;52613.19;5059095;28;20092;-74
2022/02/17 08:35:45;;;;;;;;;;;;;;;-144.99;98.78;52635.63;5036510;28;19981;-75
2022/02/17 08:38:14;;;;;;;;;;;;;;;-144.99;95.34;52574.47;5046312;28;20074;-75
2022/02/17 08:40:40;;;;;;;;;;;;;;;-144.99;97.19;52607.09;5046073;28;20449;-74
2022/02/17 08:43:09;;;;;;;;;;;;;;;-144.99;96.94;52615.25;5045061;28;20526;-72
2022/02/17 08:45:37;;;;;;;;;;;;;;;-144.99;93.70;52603.00;5045672;28;19990;-73
2022/02/17 08:48:03;;;;;;;;;;;;;;;-144.99;95.98;52615.25;5044670;28;20043;-74
2022/02/17 08:50:30;;;;;;;;;;;;;;;-144.99;94.45;52619.31;5044634;28;20043;-76
2022/02/17 08:52:56;;;;;;;;;;;;;;;-144.99;94.65;52607.09;5048008;28;20724;-76
2022/02/17 08:55:24;;;;;;;;;;;;;;;-144.99;94.18;52607.09;5045033;28;20103;-72
2022/02/17 08:57:51;;;;;;;;;;;;;;;-144.99;94.41;52623.38;5045743;28;20695;-73
2022/02/17 09:00:18;;;;;;;;;;;;;;;-144.99;94.03;52598.94;5045037;28;20084;-72
2022/02/17 09:02:45;;;;;;;;;;;;;;;-144.99;94.39;52605.03;5045679;28;20013;-72
2022/02/17 09:05:11;;;;;;;;;;;;;;;-144.99;94.18;52594.84;5043059;28;19985;-72
2022/02/17 09:07:38;;;;;;;;;;;;;;;-144.99;95.18;52607.09;5045619;28;20233;-73
2022/02/17 09:10:05;;;;;;;;;;;;;;;-144.99;93.71;52627.47;5046714;28;20054;-73
2022/02/17 09:12:33;;;;;;;;;;;;;;;-144.99;95.49;52562.25;5045603;28;20015;-73
2022/02/17 09:15:00;;;;;;;;;;;;;;;-144.99;96.10;52603.00;5057574;28;19977;-73
2022/02/17 09:17:26;;;;;;;;;;;;;;;-144.99;95.81;52611.16;5043180;28;20031;-75
2022/02/17 09:19:53;;;;;;;;;;;;;;;-144.99;97.58;52607.09;5043447;28;20516;-73
2022/02/17 09:22:19;;;;;;;;;;;;;;;-144.99;95.36;52609.13;5053354;28;20095;-74
2022/02/17 09:24:46;;;;;;;;;;;;;;;-144.99;94.39;52619.31;5045118;28;19983;-75
2022/02/17 09:27:12;;;;;;;;;;;;;;;-144.99;94.20;52586.69;5041953;28;20072;-74
2022/02/17 09:29:41;;;;;;;;;;;;;;;-144.99;92.91;52603.00;5052389;28;20536;-76
2022/02/17 09:32:08;;;;;;;;;;;;;;;-144.99;93.47;52643.78;5049531;28;20221;-72
2022/02/17 09:34:37;;;;;;;;;;;;;;;-144.99;94.61;52588.75;5053075;28;19997;-71
2022/02/17 09:37:03;;;;;;;;;;;;;;;-144.99;94.27;52586.69;5053324;28;20396;-73
2022/02/17 09:39:33;;;;;;;;;;;;;;;-144.99;92.21;52635.63;5050607;28;20033;-74
2022/02/17 09:42:00;;;;;;;;;;;;;;;-144.99;92.33;52576.50;5050963;28;20337;-71
2022/02/17 09:44:27;;;;;;;;;;;;;;;-144.99;91.45;52607.09;5049183;28;20016;-75
2022/02/17 09:46:56;;;;;;;;;;;;;;;-144.99;91.71;52603.00;5046139;28;19985;-75
2022/02/17 09:49:22;;;;;;;;;;;;;;;-144.99;92.80;52609.13;5044072;28;20091;-74
2022/02/17 09:51:50;;;;;;;;;;;;;;;-144.99;92.22;52586.69;5042536;28;20417;-74
2022/02/17 09:54:17;;;;;;;;;;;;;;;-144.99;92.45;52578.53;5046617;28;20726;-73
2022/02/17 09:56:44;;;;;;;;;;;;;;;-144.99;91.53;52586.69;5047246;28;19997;-74
2022/02/17 09:59:10;;;;;;;;;;;;;;;-144.99;90.35;52582.63;5044295;28;20355;-74
2022/02/17 10:01:37;;;;;;;;;;;;;;;-144.99;90.48;52582.63;5043869;28;20076;-73
2022/02/17 10:04:16;;;;;;;;;;;;;;;-144.99;88.41;52611.16;5043039;28;20076;-77
2022/02/17 10:06:43;;;;;;;;;;;;;;;-144.99;88.23;52603.00;5043002;28;20463;-74
2022/02/17 10:09:09;;;;;;;;;;;;;;;-144.99;88.89;52611.16;5044742;28;20001;-74
2022/02/17 10:11:39;;;;;;;;;;;;;;;-144.99;88.07;52615.25;5044311;28;19984;-76
2022/02/17 10:14:06;;;;;;;;;;;;;;;-144.99;87.48;52596.88;5043448;28;20007;-74
2022/02/17 10:16:50;;;;;;;;;;;;;;;-144.99;86.35;52598.94;5040352;28;20004;-73
2022/02/17 10:19:18;;;;;;;;;;;;;;;-144.99;85.83;52586.69;5042384;28;20099;-72
2022/02/17 10:21:44;;;;;;;;;;;;;;;-144.99;89.13;52615.25;5045508;28;20072;-74
2022/02/17 10:24:29;;;;;;;;;;;;;;;-144.99;87.41;52603.00;5043621;28;20084;-71
2022/02/17 10:27:00;;;;;;;;;;;;;;;-144.99;88.78;52574.47;5047269;28;19981;-73
2022/02/17 10:29:27;;;;;;;;;;;;;;;-144.99;88.00;52611.16;5053031;28;20000;-77
2022/02/17 10:32:03;;;;;;;;;;;;;;;-144.99;88.27;52582.63;5051245;28;20032;-75
2022/02/17 10:34:30;;;;;;;;;;;;;;;-144.99;88.61;52545.94;5045341;28;20119;-71
2022/02/17 10:36:57;;;;;;;;;;;;;;;-144.99;87.97;52607.09;5031481;28;20086;-74
2022/02/17 10:39:26;;;;;;;;;;;;;;;-144.99;85.51;52598.94;5042093;28;20106;-75
2022/02/17 10:41:53;;;;;;;;;;;;;;;-144.99;85.12;52594.84;5057469;28;20071;-74
2022/02/17 10:44:21;;;;;;;;;;;;;;;-144.99;83.71;52596.88;5040237;28;20071;-75
2022/02/17 10:46:47;;;;;;;;;;;;;;;-144.99;82.74;52562.25;5043200;28;19982;-74
2022/02/17 10:49:15;;;;;;;;;;;;;;;-144.99;83.39;52619.31;5038880;28;19997;-75
2022/02/17 10:51:43;;;;;;;;;;;;;;;-144.99;83.24;52615.25;5043983;28;20088;-75
2022/02/17 10:54:09;;;;;;;;;;;;;;;-144.99;83.53;52572.44;5041871;28;20005;-73
2022/02/17 10:56:36;;;;;;;;;;;;;;;-144.99;82.92;52590.78;5043010;28;20079;-76
2022/02/17 10:59:04;;;;;;;;;;;;;;;-144.99;83.15;52615.25;5031011;28;20099;-77
2022/02/17 11:01:31;;;;;;;;;;;;;;;-144.99;81.17;52603.00;5043199;28;20359;-74
2022/02/17 11:03:58;;;;;;;;;;;;;;;-144.99;80.21;52594.84;5042008;28;20017;-74
2022/02/17 11:06:24;;;;;;;;;;;;;;;-144.99;80.99;52566.31;5042123;28;20441;-75
2022/02/17 11:08:53;;;;;;;;;;;;;;;-144.99;80.57;52529.63;5043011;28;20552;-74
2022/02/17 11:11:21;;;;;;;;;;;;;;;-144.99;79.78;52594.84;5042998;28;19995;-75
2022/02/17 11:13:48;;;;;;;;;;;;;;;-144.99;79.26;52570.38;5041941;28;19985;-74
2022/02/17 11:16:16;;;;;;;;;;;;;;;-144.99;79.30;52574.47;5035139;28;20077;-76
2022/02/17 11:18:43;;;;;;;;;;;;;;;-144.99;82.16;52611.16;5043614;28;20020;-76
2022/02/17 11:21:14;;;;;;;;;;;;;;;-144.99;88.46;52607.09;5042220;28;20454;-75
2022/02/17 11:23:41;;;;;;;;;;;;;;;-144.99;89.67;52586.69;5032880;28;20436;-76
2022/02/17 11:26:20;;;;;;;;;;;;;;;-144.99;91.26;52613.19;5043373;28;19977;-76
2022/02/17 11:28:47;;;;;;;;;;;;;;;-144.99;92.14;52570.38;5042764;28;20083;-76
2022/02/17 11:31:13;;;;;;;;;;;;;;;-144.99;94.50;52592.81;5047515;28;20028;-74
2022/02/17 11:33:41;;;;;;;;;;;;;;;-144.99;92.09;52586.69;5049628;28;20051;-72
2022/02/17 11:36:26;;;;;;;;;;;;;;;-144.99;91.90;52651.94;5057744;28;19977;-74
2022/02/17 11:38:54;;;;;;;;;;;;;;;-144.99;89.15;52603.00;5043241;28;20071;-76
2022/02/17 11:41:23;;;;;;;;;;;;;;;-144.99;88.21;52586.69;5054504;28;20340;-74
2022/02/17 11:43:51;;;;;;;;;;;;;;;-144.99;88.05;52556.13;5043678;28;20063;-75
2022/02/17 11:46:37;;;;;;;;;;;;;;;-144.99;87.62;52605.03;5051329;28;20013;-75
2022/02/17 11:49:04;;;;;;;;;;;;;;;-144.99;89.49;52578.53;5048052;28;20243;-74
2022/02/17 11:51:30;;;;;;;;;;;;;;;-144.99;90.63;52607.09;5041182;28;20003;-74
2022/02/17 11:54:16;;;;;;;;;;;;;;;-144.99;89.77;52641.72;5052655;28;19997;-77
2022/02/17 11:56:47;;;;;;;;;;;;;;;-144.99;90.48;52635.63;5038725;28;20007;-76
2022/02/17 11:59:21;;;;;;;;;;;;;;;-144.99;93.45;52603.00;5045698;28;20088;-74
2022/02/17 12:01:47;;;;;;;;;;;;;;;-144.99;93.97;52590.78;5053025;28;19981;-75
2022/02/17 12:04:16;;;;;;;;;;;;;;;-144.99;90.62;52594.84;5035455;28;20507;-71
2022/02/17 12:06:45;;;;;;;;;;;;;;;-144.99;88.31;52605.03;5044560;28;20015;-74
2022/02/17 12:09:32;;;;;;;;;;;;;;;-144.99;88.83;52609.13;5040830;28;19993;-74
2022/02/17 12:12:20;;;;;;;;;;;;;;;-144.99;87.09;52639.69;5046415;28;20338;-75
2022/02/17 12:14:47;;;;;;;;;;;;;;;-144.99;87.95;52594.84;5044728;28;20103;-72
2022/02/17 12:17:13;;;;;;;;;;;;;;;-144.99;87.23;52586.69;5041722;28;20253;-74
2022/02/17 12:19:40;;;;;;;;;;;;;;;-144.99;87.37;52598.94;5045046;28;20029;-71
2022/02/17 12:22:07;;;;;;;;;;;;;;;-144.99;88.30;52613.19;5050614;28;20067;-73
2022/02/17 12:24:34;;;;;;;;;;;;;;;-144.99;88.97;52631.53;5045133;28;20715;-75
2022/02/17 12:27:01;;;;;;;;;;;;;;;-144.99;88.84;52584.66;5045683;28;20004;-74
2022/02/17 12:29:30;;;;;;;;;;;;;;;-144.99;89.62;52596.88;5045793;28;20019;-72
2022/02/17 12:31:58;;;;;;;;;;;;;;;-144.99;89.00;52590.78;5045488;28;20106;-72